createdAt,value
2023-03-05T00:00:23.401Z,7.80
2023-03-05T00:03:27.312Z,8.57
2023-03-05T00:06:34.770Z,5.78
2023-03-05T00:09:40.210Z,4.30
2023-03-05T00:12:44.217Z,7.05
2023-03-05T00:15:48.276Z,7.88
2023-03-05T00:18:52.172Z,8.30
2023-03-05T00:21:57.109Z,3.65
2023-03-05T00:25:02.753Z,7.32
2023-03-05T00:28:08.077Z,4.45
2023-03-05T00:31:13.823Z,4.72
2023-03-05T00:34:51.061Z,3.90
2023-03-05T00:37:57.935Z,5.57
2023-03-05T00:41:32.359Z,7.25
2023-03-05T00:45:00.953Z,4.88
2023-03-05T00:48:22.212Z,3.33
2023-03-05T00:51:28.096Z,2.88
2023-03-05T00:54:31.604Z,4.57
2023-03-05T00:57:37.746Z,5.88
2023-03-05T01:00:44.246Z,6.55
2023-03-05T01:03:49.983Z,5.25
2023-03-05T01:06:53.963Z,6.22
2023-03-05T01:10:00.230Z,10.38
2023-03-05T01:13:05.309Z,5.57
2023-03-05T01:16:09.543Z,3.78
2023-03-05T01:19:13.802Z,4.78
2023-03-05T01:22:18.742Z,5.93
2023-03-05T01:25:22.559Z,5.68
2023-03-05T01:28:29.039Z,5.10
2023-03-05T01:31:32.717Z,3.42
2023-03-05T01:34:44.859Z,6.15
2023-03-05T01:37:49.460Z,4.47
2023-03-05T01:40:53.205Z,5.68
2023-03-05T01:43:58.970Z,6.53
2023-03-05T01:47:02.624Z,4.25
2023-03-05T01:50:10.326Z,5.13
2023-03-05T01:53:13.707Z,4.00
2023-03-05T01:56:19.151Z,7.00
2023-03-05T01:59:26.967Z,6.57
2023-03-05T02:02:31.741Z,4.40
2023-03-05T02:05:44.934Z,10.95
2023-03-05T02:08:48.724Z,6.67
2023-03-05T02:11:53.463Z,7.72
2023-03-05T02:14:59.534Z,4.32
2023-03-05T02:18:03.138Z,4.68
2023-03-05T02:21:09.196Z,6.47
2023-03-05T02:24:19.035Z,7.30
2023-03-05T02:27:35.081Z,3.05
2023-03-05T02:30:39.685Z,5.30
2023-03-05T02:33:43.587Z,11.45
2023-03-05T02:36:50.458Z,8.02
2023-03-05T02:39:54.043Z,4.07
2023-03-05T02:42:58.589Z,4.53
2023-03-05T02:46:02.245Z,5.35
2023-03-05T02:49:08.483Z,3.97
2023-03-05T02:52:13.407Z,10.43
2023-03-05T02:55:18.847Z,5.07
2023-03-05T02:58:22.344Z,5.55
2023-03-05T03:01:28.304Z,6.93
2023-03-05T03:04:32.440Z,8.55
2023-03-05T03:10:42.543Z,7.22
2023-03-05T03:13:46.316Z,4.20
2023-03-05T03:16:50.594Z,8.20
2023-03-05T03:19:54.123Z,9.18
2023-03-05T03:23:00.018Z,5.38
2023-03-05T03:26:03.742Z,6.10
2023-03-05T03:29:09.030Z,7.15
2023-03-05T03:32:12.572Z,3.95
2023-03-05T03:35:17.711Z,3.78
2023-03-05T03:38:22.984Z,7.20
2023-03-05T03:41:28.569Z,1.80
2023-03-05T03:44:32.539Z,2.03
2023-03-05T03:47:36.543Z,4.00
2023-03-05T03:50:40.962Z,2.53
2023-03-05T03:53:45.879Z,3.38
2023-03-05T03:56:50.227Z,3.40
2023-03-05T03:59:54.489Z,7.50
2023-03-05T04:02:58.083Z,5.55
2023-03-05T04:06:02.329Z,8.23
2023-03-05T04:09:08.933Z,5.10
2023-03-05T04:12:17.947Z,3.47
2023-03-05T04:15:22.483Z,7.70
2023-03-05T04:18:26.874Z,3.95
2023-03-05T04:21:30.616Z,5.10
2023-03-05T04:24:35.530Z,4.50
2023-03-05T04:27:40.508Z,5.57
2023-03-05T04:30:45.103Z,6.20
2023-03-05T04:33:48.980Z,5.85
2023-03-05T04:39:57.966Z,5.45
2023-03-05T04:43:01.835Z,5.53
2023-03-05T04:46:05.950Z,3.10
2023-03-05T04:49:10.139Z,11.43
2023-03-05T04:52:18.951Z,3.00
2023-03-05T04:55:25.094Z,5.68
2023-03-05T04:58:29.679Z,5.20
2023-03-05T05:01:35.455Z,5.30
2023-03-05T05:04:45.109Z,5.18
2023-03-05T05:07:49.103Z,3.70
2023-03-05T05:14:08.396Z,4.80
2023-03-05T05:20:18.909Z,3.38
2023-03-05T05:23:22.462Z,5.82
2023-03-05T05:26:27.848Z,3.75
2023-03-05T05:29:31.221Z,7.55
2023-03-05T05:32:35.124Z,3.70
2023-03-05T05:38:44.579Z,3.90
2023-03-05T05:41:52.791Z,5.32
2023-03-05T05:44:56.468Z,5.78
2023-03-05T05:48:00.270Z,2.90
2023-03-05T05:51:12.673Z,6.75
2023-03-05T05:54:18.059Z,3.75
2023-03-05T05:57:23.745Z,2.40
2023-03-05T06:00:29.877Z,3.60
2023-03-05T06:03:36.717Z,5.75
2023-03-05T06:06:40.205Z,3.03
2023-03-05T06:09:43.821Z,3.45
2023-03-05T06:12:49.428Z,8.23
2023-03-05T06:16:00.226Z,3.65
2023-03-05T06:19:11.324Z,3.53
2023-03-05T06:22:21.336Z,2.33
2023-03-05T06:25:24.961Z,6.53
2023-03-05T06:28:31.314Z,4.15
2023-03-05T06:31:38.614Z,3.05
2023-03-05T06:34:57.959Z,2.78
2023-03-05T06:38:05.608Z,4.85
2023-03-05T06:41:12.062Z,4.93
2023-03-05T06:44:29.368Z,7.00
2023-03-05T06:47:35.226Z,1.80
2023-03-05T06:50:40.339Z,3.90
2023-03-05T06:53:50.020Z,1.77
2023-03-05T06:56:56.799Z,2.38
2023-03-05T07:00:12.373Z,2.45
2023-03-05T07:03:23.806Z,3.60
2023-03-05T07:06:28.725Z,3.97
2023-03-05T07:09:32.708Z,2.03
2023-03-05T07:12:39.011Z,5.70
2023-03-05T07:15:44.250Z,1.00
2023-03-05T07:18:49.488Z,2.17
2023-03-05T07:21:53.618Z,1.75
2023-03-05T07:24:57.091Z,2.67
2023-03-05T07:28:01.614Z,1.67
2023-03-05T07:31:10.302Z,3.10
2023-03-05T07:34:13.730Z,3.00
2023-03-05T07:37:18.899Z,5.78
2023-03-05T07:40:24.129Z,1.13
2023-03-05T07:43:27.818Z,2.72
2023-03-05T07:46:35.410Z,3.47
2023-03-05T07:49:41.637Z,5.97
2023-03-05T07:52:45.420Z,1.73
2023-03-05T07:55:49.620Z,3.38
2023-03-05T08:01:59.807Z,5.35
2023-03-05T08:05:03.698Z,5.90
2023-03-05T08:08:08.630Z,2.92
2023-03-05T08:11:15.194Z,3.75
2023-03-05T08:14:20.571Z,2.72
2023-03-05T08:17:25.851Z,3.08
2023-03-05T08:20:31.348Z,3.25
2023-03-05T08:23:35.653Z,2.65
2023-03-05T08:26:41.102Z,2.38
2023-03-05T08:29:45.850Z,9.95
2023-03-05T08:32:52.834Z,3.30
2023-03-05T08:35:58.727Z,4.63
2023-03-05T08:39:26.462Z,11.20
2023-03-05T08:42:34.579Z,5.93
2023-03-05T08:45:49.659Z,6.85
2023-03-05T08:48:58.035Z,4.15
2023-03-05T08:52:15.033Z,10.05
2023-03-05T08:55:19.839Z,1.60
2023-03-05T08:58:32.630Z,4.43
2023-03-05T09:01:36.452Z,3.45
2023-03-05T09:04:42.677Z,3.95
2023-03-05T09:07:47.107Z,3.17
2023-03-05T09:10:52.487Z,5.18
2023-03-05T09:13:56.983Z,4.68
2023-03-05T09:17:01.212Z,9.38
2023-03-05T09:20:09.638Z,13.38
2023-03-05T09:23:13.993Z,5.75
2023-03-05T09:26:26.703Z,5.57
2023-03-05T09:29:32.363Z,4.82
2023-03-05T09:32:36.165Z,3.60
2023-03-05T09:35:41.590Z,2.22
2023-03-05T09:38:45.060Z,2.97
2023-03-05T09:42:29.660Z,4.78
2023-03-05T09:45:44.361Z,4.15
2023-03-05T09:49:32.977Z,4.28
2023-03-05T09:53:06.982Z,5.57
2023-03-05T09:56:28.109Z,2.45
2023-03-05T09:59:44.727Z,6.97
2023-03-05T10:02:55.917Z,2.53
2023-03-05T10:06:10.959Z,5.97
2023-03-05T10:09:30.550Z,3.00
2023-03-05T10:12:44.188Z,6.07
2023-03-05T10:16:00.507Z,2.77
2023-03-05T10:19:18.034Z,5.28
2023-03-05T10:22:30.927Z,2.60
2023-03-05T10:25:55.527Z,4.20
2023-03-05T10:29:12.305Z,6.78
2023-03-05T10:32:29.997Z,3.47
2023-03-05T10:36:04.665Z,3.97
2023-03-05T10:40:02.349Z,2.38
2023-03-05T10:43:23.081Z,2.72
2023-03-05T10:46:37.031Z,3.45
2023-03-05T10:49:51.083Z,3.83
2023-03-05T10:53:08.173Z,3.65
2023-03-05T10:56:14.956Z,1.70
2023-03-05T10:59:21.852Z,5.15
2023-03-05T11:02:28.276Z,2.72
2023-03-05T11:05:48.738Z,1.70
2023-03-05T11:08:57.233Z,9.60
2023-03-05T11:12:18.419Z,3.17
2023-03-05T11:15:30.841Z,1.67
2023-03-05T11:18:36.087Z,2.35
2023-03-05T11:21:40.206Z,5.65
2023-03-05T11:27:56.328Z,1.70
2023-03-05T11:31:21.478Z,3.65
2023-03-05T11:34:37.042Z,5.63
2023-03-05T11:37:42.387Z,4.03
2023-03-05T11:40:47.856Z,2.50
2023-03-05T11:43:58.798Z,3.53
2023-03-05T11:47:25.708Z,3.80
2023-03-05T11:50:33.187Z,4.95
2023-03-05T11:53:40.714Z,2.33
2023-03-05T11:56:47.094Z,2.33
2023-03-05T11:59:55.733Z,1.90
2023-03-05T12:03:08.517Z,4.00
2023-03-05T12:06:24.686Z,4.03
2023-03-05T12:09:40.903Z,5.82
2023-03-05T12:12:56.459Z,3.65
2023-03-05T12:19:47.114Z,3.93
2023-03-05T12:22:53.136Z,4.30
2023-03-05T12:26:01.851Z,2.25
2023-03-05T12:29:05.855Z,3.47
2023-03-05T12:33:04.863Z,3.33
2023-03-05T12:36:39.746Z,4.68
2023-03-05T12:40:04.722Z,4.13
2023-03-05T12:43:29.746Z,4.75
2023-03-05T12:46:35.901Z,5.15
2023-03-05T12:49:41.674Z,3.30
2023-03-05T12:52:48.202Z,3.33
2023-03-05T12:56:02.143Z,3.67
2023-03-05T12:59:06.181Z,3.50
2023-03-05T13:02:27.583Z,4.00
2023-03-05T13:05:34.873Z,2.95
2023-03-05T13:08:40.719Z,3.80
2023-03-05T13:11:49.389Z,1.77
2023-03-05T13:15:06.248Z,2.25
2023-03-05T13:18:21.456Z,2.50
2023-03-05T13:21:29.748Z,3.28
2023-03-05T13:24:34.868Z,3.78
2023-03-05T13:27:38.678Z,3.83
2023-03-05T13:30:51.726Z,3.88
2023-03-05T13:34:00.823Z,3.83
2023-03-05T13:37:08.858Z,7.35
2023-03-05T13:40:24.967Z,1.42
2023-03-05T13:43:32.852Z,2.70
2023-03-05T13:46:40.796Z,4.53
2023-03-05T13:49:45.182Z,3.15
2023-03-05T13:52:48.982Z,4.07
2023-03-05T13:55:59.186Z,4.13
2023-03-05T13:59:03.299Z,3.92
2023-03-05T14:05:23.148Z,2.97
2023-03-05T14:08:28.544Z,10.90
2023-03-05T14:11:34.476Z,2.47
2023-03-05T14:14:40.247Z,2.78
2023-03-05T14:17:45.080Z,3.75
2023-03-05T14:21:06.467Z,1.67
2023-03-05T14:24:15.830Z,4.13
2023-03-05T14:27:24.342Z,2.20
2023-03-05T14:30:33.621Z,6.80
2023-03-05T14:33:37.186Z,2.40
2023-03-05T14:36:40.881Z,5.43
2023-03-05T14:39:54.227Z,11.13
2023-03-05T14:43:01.712Z,5.43
2023-03-05T14:46:06.983Z,5.63
2023-03-05T14:49:12.705Z,7.30
2023-03-05T14:52:19.504Z,9.10
2023-03-05T14:55:28.064Z,7.30
2023-03-05T14:58:35.753Z,2.47
2023-03-05T15:01:39.831Z,3.15
2023-03-05T15:04:46.087Z,3.55
2023-03-05T15:07:50.622Z,3.33
2023-03-05T15:10:55.574Z,6.88
2023-03-05T15:14:01.304Z,1.83
2023-03-05T15:17:05.608Z,1.75
2023-03-05T15:20:16.085Z,7.53
2023-03-05T15:23:20.813Z,2.28
2023-03-05T15:26:25.753Z,3.63
2023-03-05T15:29:31.074Z,3.10
2023-03-05T15:32:35.350Z,4.22
2023-03-05T15:35:39.850Z,2.10
2023-03-05T15:38:43.355Z,3.90
2023-03-05T15:41:47.499Z,5.65
2023-03-05T15:47:57.758Z,3.72
2023-03-05T15:51:03.178Z,3.25
2023-03-05T15:54:12.638Z,5.15
2023-03-05T15:57:17.989Z,4.55
2023-03-05T16:00:30.707Z,6.30
2023-03-05T16:03:34.293Z,9.13
2023-03-05T16:06:38.416Z,3.88
2023-03-05T16:12:53.193Z,3.67
2023-03-05T16:16:03.251Z,2.22
2023-03-05T16:19:10.531Z,1.02
2023-03-05T16:22:14.446Z,4.63
2023-03-05T16:25:19.318Z,3.17
2023-03-05T16:28:24.231Z,3.75
2023-03-05T16:31:34.410Z,2.83
2023-03-05T16:34:38.085Z,9.45
2023-03-05T16:37:44.252Z,1.75
2023-03-05T16:41:07.351Z,3.67
2023-03-05T16:44:12.895Z,3.83
2023-03-05T16:50:23.961Z,4.38
2023-03-05T16:53:27.769Z,3.03
2023-03-05T16:56:31.477Z,3.92
2023-03-05T16:59:35.308Z,5.93
2023-03-05T17:02:40.300Z,1.35
2023-03-05T17:05:43.716Z,3.08
2023-03-05T17:08:49.552Z,4.18
2023-03-05T17:11:54.658Z,5.13
2023-03-05T17:14:58.801Z,3.78
2023-03-05T17:21:17.638Z,3.13
2023-03-05T17:24:27.270Z,3.75
2023-03-05T17:27:31.038Z,7.63
2023-03-05T17:30:37.244Z,4.13
2023-03-05T17:33:47.679Z,4.97
2023-03-05T17:36:51.438Z,7.93
2023-03-05T17:39:57.460Z,6.82
2023-03-05T17:43:01.475Z,11.00
2023-03-05T17:49:11.237Z,10.75
2023-03-05T17:52:18.114Z,13.07
2023-03-05T17:55:24.071Z,15.23
2023-03-05T17:58:27.593Z,9.32
2023-03-05T18:01:35.779Z,14.18
2023-03-05T18:04:43.414Z,11.48
2023-03-05T18:07:52.358Z,12.98
2023-03-05T18:10:57.994Z,7.20
2023-03-05T18:14:02.108Z,10.20
2023-03-05T18:17:05.695Z,11.15
2023-03-05T18:20:24.966Z,14.52
2023-03-05T18:23:28.568Z,7.43
2023-03-05T18:26:32.605Z,4.47
2023-03-05T18:29:37.100Z,7.25
2023-03-05T18:32:40.648Z,7.25
2023-03-05T18:35:45.346Z,7.95
2023-03-05T18:38:51.829Z,5.82
2023-03-05T18:41:57.970Z,7.50
2023-03-05T18:45:03.216Z,7.68
2023-03-05T18:48:06.722Z,6.85
2023-03-05T18:51:17.837Z,15.02
2023-03-05T18:54:23.145Z,5.80
2023-03-05T18:57:26.860Z,7.90
2023-03-05T19:00:32.698Z,5.20
2023-03-05T19:03:37.146Z,7.30
2023-03-05T19:06:42.599Z,9.57
2023-03-05T19:09:53.162Z,6.90
2023-03-05T19:13:08.673Z,5.35
2023-03-05T19:16:14.553Z,6.65
2023-03-05T19:19:21.623Z,10.88
2023-03-05T19:22:29.600Z,13.70
2023-03-05T19:25:37.062Z,13.55
2023-03-05T19:28:40.781Z,11.20
2023-03-05T19:31:44.700Z,7.57
2023-03-05T19:37:54.243Z,8.25
2023-03-05T19:40:57.868Z,11.45
2023-03-05T19:44:01.241Z,7.85
2023-03-05T19:47:04.978Z,7.72
2023-03-05T19:50:10.320Z,4.20
2023-03-05T19:53:16.806Z,9.35
2023-03-05T19:56:21.081Z,7.07
2023-03-05T19:59:25.618Z,7.65
2023-03-05T20:02:29.824Z,4.57
2023-03-05T20:05:33.160Z,5.80
2023-03-05T20:08:38.592Z,7.68
2023-03-05T20:11:42.698Z,7.28
2023-03-05T20:14:46.099Z,9.02
2023-03-05T20:17:50.726Z,10.80
2023-03-05T20:20:58.199Z,15.10
2023-03-05T20:24:09.893Z,11.25
2023-03-05T20:27:16.611Z,12.35
2023-03-05T20:30:20.987Z,11.85
2023-03-05T20:33:25.332Z,15.95
2023-03-05T20:36:29.170Z,14.38
2023-03-05T20:45:41.485Z,8.27
2023-03-05T20:48:45.819Z,8.93
2023-03-05T20:51:52.304Z,13.60
2023-03-05T20:54:57.274Z,8.35
2023-03-05T20:58:01.753Z,9.40
2023-03-05T21:01:05.370Z,10.75
2023-03-05T21:04:10.779Z,10.07
2023-03-05T21:07:14.496Z,10.57
2023-03-05T21:10:20.448Z,9.73
2023-03-05T21:13:25.539Z,13.38
2023-03-05T21:16:30.086Z,13.60
2023-03-05T21:19:34.870Z,16.33
2023-03-05T21:22:40.177Z,16.10
2023-03-05T21:25:45.122Z,16.67
2023-03-05T21:28:50.797Z,14.13
2023-03-05T21:31:54.747Z,11.50
2023-03-05T21:34:59.438Z,12.15
2023-03-05T21:38:06.115Z,9.45
2023-03-05T21:41:13.604Z,12.38
2023-03-05T21:44:17.778Z,11.68
2023-03-05T21:47:21.608Z,9.38
2023-03-05T21:50:26.972Z,10.02
2023-03-05T21:53:31.394Z,10.27
2023-03-05T21:56:36.417Z,9.75
2023-03-05T21:59:42.598Z,11.02
2023-03-05T22:02:46.601Z,11.68
2023-03-05T22:08:55.031Z,9.32
2023-03-05T22:12:00.088Z,8.57
2023-03-05T22:15:03.914Z,8.30
2023-03-05T22:18:07.596Z,6.25
2023-03-05T22:21:19.692Z,8.68
2023-03-05T22:24:25.674Z,6.93
2023-03-05T22:27:33.048Z,8.07
2023-03-05T22:30:36.880Z,7.47
2023-03-05T22:33:40.849Z,8.93
2023-03-05T22:39:47.429Z,7.13
2023-03-05T22:42:53.791Z,12.85
2023-03-05T22:45:57.335Z,8.13
2023-03-05T22:49:00.738Z,8.32
2023-03-05T22:52:04.318Z,8.52
2023-03-05T22:55:08.928Z,11.15
2023-03-05T22:58:15.026Z,8.23
2023-03-05T23:01:21.384Z,8.88
2023-03-05T23:04:40.972Z,11.35
2023-03-05T23:07:45.808Z,7.15
2023-03-05T23:10:50.560Z,8.23
2023-03-05T23:13:55.556Z,6.25
2023-03-05T23:16:59.053Z,6.72
2023-03-05T23:20:04.617Z,9.20
2023-03-05T23:23:08.556Z,8.50
2023-03-05T23:29:17.058Z,7.43
2023-03-05T23:32:21.066Z,7.80
2023-03-05T23:35:28.453Z,7.05
2023-03-05T23:38:32.064Z,8.13
2023-03-05T23:41:35.579Z,7.35
2023-03-05T23:44:40.291Z,11.57
2023-03-05T23:47:44.733Z,10.32
2023-03-05T23:50:52.435Z,11.40
2023-03-05T23:53:56.889Z,9.60
2023-03-05T23:57:06.109Z,10.68
